sensor_id;sensor_type;location;lat;lon;timestamp;temperature;humidity
10312;DHT22;5201;48.776;9.128;2023-04-03T00:01:13;4.50;99.90
10312;DHT22;5201;48.776;9.128;2023-04-03T00:03:38;4.50;99.90
10312;DHT22;5201;48.776;9.128;2023-04-03T00:06:05;4.40;99.90
10312;DHT22;5201;48.776;9.128;2023-04-03T00:08:32;4.70;99.90
10312;DHT22;5201;48.776;9.128;2023-04-03T00:10:58;4.40;99.90
10312;DHT22;5201;48.776;9.128;2023-04-03T00:13:24;4.40;99.90
10312;DHT22;5201;48.776;9.128;2023-04-03T00:15:51;4.40;99.90
10312;DHT22;5201;48.776;9.128;2023-04-03T00:18:16;4.80;99.90
10312;DHT22;5201;48.776;9.128;2023-04-03T00:20:42;4.30;99.90
10312;DHT22;5201;48.776;9.128;2023-04-03T00:23:07;4.40;99.90
10312;DHT22;5201;48.776;9.128;2023-04-03T00:25:33;4.50;99.90
10312;DHT22;5201;48.776;9.128;2023-04-03T00:27:59;4.50;99.90
10312;DHT22;5201;48.776;9.128;2023-04-03T00:30:25;5.20;99.90
10312;DHT22;5201;48.776;9.128;2023-04-03T00:32:51;4.50;99.90
10312;DHT22;5201;48.776;9.128;2023-04-03T00:35:18;4.50;99.90
10312;DHT22;5201;48.776;9.128;2023-04-03T00:37:44;4.50;99.90
10312;DHT22;5201;48.776;9.128;2023-04-03T00:40:12;4.50;99.90
10312;DHT22;5201;48.776;9.128;2023-04-03T00:42:40;4.60;99.90
10312;DHT22;5201;48.776;9.128;2023-04-03T00:47:32;4.60;99.90
10312;DHT22;5201;48.776;9.128;2023-04-03T00:49:58;4.50;99.90
10312;DHT22;5201;48.776;9.128;2023-04-03T00:52:27;4.50;99.90
10312;DHT22;5201;48.776;9.128;2023-04-03T00:54:56;4.40;99.90
10312;DHT22;5201;48.776;9.128;2023-04-03T00:57:23;4.50;99.90
10312;DHT22;5201;48.776;9.128;2023-04-03T00:59:53;4.40;99.90
10312;DHT22;5201;48.776;9.128;2023-04-03T01:02:20;4.30;99.90
10312;DHT22;5201;48.776;9.128;2023-04-03T01:04:46;4.30;99.90
10312;DHT22;5201;48.776;9.128;2023-04-03T01:07:19;4.20;99.90
10312;DHT22;5201;48.776;9.128;2023-04-03T01:09:48;4.30;99.90
10312;DHT22;5201;48.776;9.128;2023-04-03T01:12:29;4.30;99.90
10312;DHT22;5201;48.776;9.128;2023-04-03T01:15:00;4.50;99.90
10312;DHT22;5201;48.776;9.128;2023-04-03T01:17:35;4.70;99.90
10312;DHT22;5201;48.776;9.128;2023-04-03T01:23:06;4.50;99.90
10312;DHT22;5201;48.776;9.128;2023-04-03T01:25:43;4.60;99.90
10312;DHT22;5201;48.776;9.128;2023-04-03T01:30:55;4.60;99.90
10312;DHT22;5201;48.776;9.128;2023-04-03T01:33:23;4.60;99.90
10312;DHT22;5201;48.776;9.128;2023-04-03T01:35:49;4.50;99.90
10312;DHT22;5201;48.776;9.128;2023-04-03T01:38:15;4.40;99.90
10312;DHT22;5201;48.776;9.128;2023-04-03T01:40:41;4.50;99.90
10312;DHT22;5201;48.776;9.128;2023-04-03T01:43:07;4.50;99.90
10312;DHT22;5201;48.776;9.128;2023-04-03T01:45:33;4.40;99.90
10312;DHT22;5201;48.776;9.128;2023-04-03T01:47:58;4.40;99.90
10312;DHT22;5201;48.776;9.128;2023-04-03T01:50:24;4.30;99.90
10312;DHT22;5201;48.776;9.128;2023-04-03T01:52:50;4.10;99.90
10312;DHT22;5201;48.776;9.128;2023-04-03T01:55:15;4.10;99.90
10312;DHT22;5201;48.776;9.128;2023-04-03T01:57:41;4.20;99.90
10312;DHT22;5201;48.776;9.128;2023-04-03T02:00:07;4.20;99.90
10312;DHT22;5201;48.776;9.128;2023-04-03T02:02:33;4.20;99.90
10312;DHT22;5201;48.776;9.128;2023-04-03T02:04:59;4.30;99.90
10312;DHT22;5201;48.776;9.128;2023-04-03T02:07:24;4.50;99.90
10312;DHT22;5201;48.776;9.128;2023-04-03T02:09:51;4.40;99.90
10312;DHT22;5201;48.776;9.128;2023-04-03T02:12:16;4.20;99.90
10312;DHT22;5201;48.776;9.128;2023-04-03T02:14:42;4.20;99.90
10312;DHT22;5201;48.776;9.128;2023-04-03T02:17:08;4.30;99.90
10312;DHT22;5201;48.776;9.128;2023-04-03T02:19:37;4.20;99.90
10312;DHT22;5201;48.776;9.128;2023-04-03T02:22:03;4.20;99.90
10312;DHT22;5201;48.776;9.128;2023-04-03T02:24:29;4.10;99.90
10312;DHT22;5201;48.776;9.128;2023-04-03T02:26:54;4.30;99.90
10312;DHT22;5201;48.776;9.128;2023-04-03T02:29:20;4.10;99.90
10312;DHT22;5201;48.776;9.128;2023-04-03T02:31:46;4.20;99.90
10312;DHT22;5201;48.776;9.128;2023-04-03T02:34:11;4.10;99.90
10312;DHT22;5201;48.776;9.128;2023-04-03T02:36:37;4.00;99.90
10312;DHT22;5201;48.776;9.128;2023-04-03T02:39:03;4.00;99.90
10312;DHT22;5201;48.776;9.128;2023-04-03T02:41:28;4.00;99.90
10312;DHT22;5201;48.776;9.128;2023-04-03T02:44:00;4.30;99.90
10312;DHT22;5201;48.776;9.128;2023-04-03T02:46:26;4.40;99.90
10312;DHT22;5201;48.776;9.128;2023-04-03T02:48:51;4.40;99.90
10312;DHT22;5201;48.776;9.128;2023-04-03T02:51:17;4.50;99.90
10312;DHT22;5201;48.776;9.128;2023-04-03T02:53:43;4.30;99.90
10312;DHT22;5201;48.776;9.128;2023-04-03T02:56:08;4.40;99.90
10312;DHT22;5201;48.776;9.128;2023-04-03T02:58:34;4.50;99.90
10312;DHT22;5201;48.776;9.128;2023-04-03T03:01:01;4.50;99.90
10312;DHT22;5201;48.776;9.128;2023-04-03T03:03:26;4.50;99.90
10312;DHT22;5201;48.776;9.128;2023-04-03T03:06:10;4.60;99.90
10312;DHT22;5201;48.776;9.128;2023-04-03T03:08:36;4.60;99.90
10312;DHT22;5201;48.776;9.128;2023-04-03T03:11:03;4.50;99.90
10312;DHT22;5201;48.776;9.128;2023-04-03T03:13:28;4.60;99.90
10312;DHT22;5201;48.776;9.128;2023-04-03T03:15:54;4.60;99.90
10312;DHT22;5201;48.776;9.128;2023-04-03T03:18:21;4.50;99.90
10312;DHT22;5201;48.776;9.128;2023-04-03T03:20:46;4.30;99.90
10312;DHT22;5201;48.776;9.128;2023-04-03T03:23:12;4.50;99.90
10312;DHT22;5201;48.776;9.128;2023-04-03T03:25:39;5.00;99.90
10312;DHT22;5201;48.776;9.128;2023-04-03T03:28:05;4.50;99.90
10312;DHT22;5201;48.776;9.128;2023-04-03T03:30:31;4.50;99.90
10312;DHT22;5201;48.776;9.128;2023-04-03T03:32:56;4.60;99.90
10312;DHT22;5201;48.776;9.128;2023-04-03T03:35:22;4.60;99.90
10312;DHT22;5201;48.776;9.128;2023-04-03T03:37:47;4.70;99.90
10312;DHT22;5201;48.776;9.128;2023-04-03T03:40:13;4.70;99.90
10312;DHT22;5201;48.776;9.128;2023-04-03T03:42:39;4.60;99.90
10312;DHT22;5201;48.776;9.128;2023-04-03T03:45:05;5.30;99.90
10312;DHT22;5201;48.776;9.128;2023-04-03T03:47:31;4.50;99.90
10312;DHT22;5201;48.776;9.128;2023-04-03T03:49:56;4.50;99.90
10312;DHT22;5201;48.776;9.128;2023-04-03T03:52:22;4.50;99.90
10312;DHT22;5201;48.776;9.128;2023-04-03T03:54:48;4.60;99.90
10312;DHT22;5201;48.776;9.128;2023-04-03T03:57:13;4.50;99.90
10312;DHT22;5201;48.776;9.128;2023-04-03T03:59:39;4.40;99.90
10312;DHT22;5201;48.776;9.128;2023-04-03T04:02:07;4.40;99.90
10312;DHT22;5201;48.776;9.128;2023-04-03T04:04:33;4.50;99.90
10312;DHT22;5201;48.776;9.128;2023-04-03T04:06:58;4.40;99.90
10312;DHT22;5201;48.776;9.128;2023-04-03T04:09:26;4.40;99.90
10312;DHT22;5201;48.776;9.128;2023-04-03T04:11:52;4.30;99.90
10312;DHT22;5201;48.776;9.128;2023-04-03T04:14:17;4.20;99.90
10312;DHT22;5201;48.776;9.128;2023-04-03T04:16:43;4.20;99.90
10312;DHT22;5201;48.776;9.128;2023-04-03T04:19:09;4.30;99.90
10312;DHT22;5201;48.776;9.128;2023-04-03T04:21:35;4.30;99.90
10312;DHT22;5201;48.776;9.128;2023-04-03T04:24:00;4.40;99.90
10312;DHT22;5201;48.776;9.128;2023-04-03T04:26:26;4.50;99.90
10312;DHT22;5201;48.776;9.128;2023-04-03T04:28:51;4.40;99.90
10312;DHT22;5201;48.776;9.128;2023-04-03T04:31:17;4.30;99.90
10312;DHT22;5201;48.776;9.128;2023-04-03T04:33:42;4.30;99.90
10312;DHT22;5201;48.776;9.128;2023-04-03T04:36:08;4.40;99.90
10312;DHT22;5201;48.776;9.128;2023-04-03T04:38:34;4.20;99.90
10312;DHT22;5201;48.776;9.128;2023-04-03T04:40:59;4.10;99.90
10312;DHT22;5201;48.776;9.128;2023-04-03T04:43:25;4.10;99.90
10312;DHT22;5201;48.776;9.128;2023-04-03T04:46:01;4.00;99.90
10312;DHT22;5201;48.776;9.128;2023-04-03T04:48:27;4.20;99.90
10312;DHT22;5201;48.776;9.128;2023-04-03T04:50:52;4.30;99.90
10312;DHT22;5201;48.776;9.128;2023-04-03T04:53:18;4.40;99.90
10312;DHT22;5201;48.776;9.128;2023-04-03T04:55:43;4.40;99.90
10312;DHT22;5201;48.776;9.128;2023-04-03T04:58:09;4.30;99.90
10312;DHT22;5201;48.776;9.128;2023-04-03T05:00:34;4.30;99.90
10312;DHT22;5201;48.776;9.128;2023-04-03T05:03:00;4.50;99.90
10312;DHT22;5201;48.776;9.128;2023-04-03T05:05:26;4.60;99.90
10312;DHT22;5201;48.776;9.128;2023-04-03T05:07:51;4.50;99.90
10312;DHT22;5201;48.776;9.128;2023-04-03T05:10:17;4.20;99.90
10312;DHT22;5201;48.776;9.128;2023-04-03T05:12:42;4.30;99.90
10312;DHT22;5201;48.776;9.128;2023-04-03T05:15:08;4.30;99.90
10312;DHT22;5201;48.776;9.128;2023-04-03T05:17:34;4.40;99.90
10312;DHT22;5201;48.776;9.128;2023-04-03T05:20:00;4.40;99.90
10312;DHT22;5201;48.776;9.128;2023-04-03T05:22:25;4.30;99.90
10312;DHT22;5201;48.776;9.128;2023-04-03T05:24:51;4.40;99.90
10312;DHT22;5201;48.776;9.128;2023-04-03T05:27:16;4.30;99.90
10312;DHT22;5201;48.776;9.128;2023-04-03T05:29:42;4.20;99.90
10312;DHT22;5201;48.776;9.128;2023-04-03T05:32:10;4.20;99.90
10312;DHT22;5201;48.776;9.128;2023-04-03T05:34:36;4.60;99.90
10312;DHT22;5201;48.776;9.128;2023-04-03T05:37:01;4.90;99.90
10312;DHT22;5201;48.776;9.128;2023-04-03T05:39:28;4.50;99.90
10312;DHT22;5201;48.776;9.128;2023-04-03T05:41:54;3.90;99.90
10312;DHT22;5201;48.776;9.128;2023-04-03T05:44:19;4.00;99.90
10312;DHT22;5201;48.776;9.128;2023-04-03T05:46:45;4.10;99.90
10312;DHT22;5201;48.776;9.128;2023-04-03T05:49:11;4.20;99.90
10312;DHT22;5201;48.776;9.128;2023-04-03T05:51:37;4.30;99.90
10312;DHT22;5201;48.776;9.128;2023-04-03T05:54:16;4.10;99.90
10312;DHT22;5201;48.776;9.128;2023-04-03T05:56:43;4.10;99.90
10312;DHT22;5201;48.776;9.128;2023-04-03T05:59:09;4.10;99.90
10312;DHT22;5201;48.776;9.128;2023-04-03T06:01:35;4.10;99.90
10312;DHT22;5201;48.776;9.128;2023-04-03T06:04:00;4.20;99.90
10312;DHT22;5201;48.776;9.128;2023-04-03T06:06:46;4.30;99.90
10312;DHT22;5201;48.776;9.128;2023-04-03T06:09:12;4.80;99.90
10312;DHT22;5201;48.776;9.128;2023-04-03T06:11:37;4.30;99.90
10312;DHT22;5201;48.776;9.128;2023-04-03T06:14:04;4.30;99.90
10312;DHT22;5201;48.776;9.128;2023-04-03T06:16:30;4.30;99.90
10312;DHT22;5201;48.776;9.128;2023-04-03T06:18:55;4.50;99.90
10312;DHT22;5201;48.776;9.128;2023-04-03T06:21:21;4.30;99.90
10312;DHT22;5201;48.776;9.128;2023-04-03T06:23:47;4.30;99.90
10312;DHT22;5201;48.776;9.128;2023-04-03T06:26:12;4.30;99.90
10312;DHT22;5201;48.776;9.128;2023-04-03T06:28:38;5.40;99.90
10312;DHT22;5201;48.776;9.128;2023-04-03T06:31:04;4.70;99.90
10312;DHT22;5201;48.776;9.128;2023-04-03T06:33:29;4.40;99.90
10312;DHT22;5201;48.776;9.128;2023-04-03T06:35:59;4.40;99.90
10312;DHT22;5201;48.776;9.128;2023-04-03T06:38:25;4.50;99.90
10312;DHT22;5201;48.776;9.128;2023-04-03T06:40:51;4.50;99.90
10312;DHT22;5201;48.776;9.128;2023-04-03T06:43:17;4.50;99.90
10312;DHT22;5201;48.776;9.128;2023-04-03T06:45:43;4.50;99.90
10312;DHT22;5201;48.776;9.128;2023-04-03T06:48:08;6.30;99.90
10312;DHT22;5201;48.776;9.128;2023-04-03T06:50:34;4.90;99.90
10312;DHT22;5201;48.776;9.128;2023-04-03T06:53:00;4.50;99.90
10312;DHT22;5201;48.776;9.128;2023-04-03T06:55:26;4.30;99.90
10312;DHT22;5201;48.776;9.128;2023-04-03T06:57:52;4.30;99.90
10312;DHT22;5201;48.776;9.128;2023-04-03T07:00:18;4.30;99.90
10312;DHT22;5201;48.776;9.128;2023-04-03T07:02:44;4.50;99.90
10312;DHT22;5201;48.776;9.128;2023-04-03T07:05:10;4.30;99.90
10312;DHT22;5201;48.776;9.128;2023-04-03T07:07:37;4.40;99.90
10312;DHT22;5201;48.776;9.128;2023-04-03T07:10:04;3.30;99.90
10312;DHT22;5201;48.776;9.128;2023-04-03T07:12:29;4.30;99.90
10312;DHT22;5201;48.776;9.128;2023-04-03T07:14:55;4.40;99.90
10312;DHT22;5201;48.776;9.128;2023-04-03T07:17:22;4.20;99.90
10312;DHT22;5201;48.776;9.128;2023-04-03T07:19:48;4.20;99.90
10312;DHT22;5201;48.776;9.128;2023-04-03T07:22:13;4.30;99.90
10312;DHT22;5201;48.776;9.128;2023-04-03T07:24:39;4.40;99.90
10312;DHT22;5201;48.776;9.128;2023-04-03T07:27:05;4.40;99.90
10312;DHT22;5201;48.776;9.128;2023-04-03T07:29:30;4.50;99.90
10312;DHT22;5201;48.776;9.128;2023-04-03T07:31:56;4.70;99.90
10312;DHT22;5201;48.776;9.128;2023-04-03T07:34:22;4.50;99.90
10312;DHT22;5201;48.776;9.128;2023-04-03T07:36:48;4.50;99.90
10312;DHT22;5201;48.776;9.128;2023-04-03T07:39:13;4.60;99.90
10312;DHT22;5201;48.776;9.128;2023-04-03T07:41:39;4.60;99.90
10312;DHT22;5201;48.776;9.128;2023-04-03T07:44:05;4.80;99.90
10312;DHT22;5201;48.776;9.128;2023-04-03T07:46:31;5.00;99.90
10312;DHT22;5201;48.776;9.128;2023-04-03T07:48:57;5.10;99.90
10312;DHT22;5201;48.776;9.128;2023-04-03T07:51:23;5.20;99.90
10312;DHT22;5201;48.776;9.128;2023-04-03T07:53:49;5.30;99.90
10312;DHT22;5201;48.776;9.128;2023-04-03T07:56:16;6.10;99.90
10312;DHT22;5201;48.776;9.128;2023-04-03T07:58:42;5.70;99.90
10312;DHT22;5201;48.776;9.128;2023-04-03T08:01:08;6.10;99.90
10312;DHT22;5201;48.776;9.128;2023-04-03T08:03:33;5.80;99.90
10312;DHT22;5201;48.776;9.128;2023-04-03T08:06:04;5.40;99.90
10312;DHT22;5201;48.776;9.128;2023-04-03T08:08:30;5.30;99.90
10312;DHT22;5201;48.776;9.128;2023-04-03T08:10:59;5.20;99.90
10312;DHT22;5201;48.776;9.128;2023-04-03T08:13:25;5.30;99.90
10312;DHT22;5201;48.776;9.128;2023-04-03T08:15:51;5.30;99.90
10312;DHT22;5201;48.776;9.128;2023-04-03T08:18:17;5.30;99.90
10312;DHT22;5201;48.776;9.128;2023-04-03T08:20:44;5.10;99.90
10312;DHT22;5201;48.776;9.128;2023-04-03T08:23:10;5.20;99.90
10312;DHT22;5201;48.776;9.128;2023-04-03T08:25:40;5.00;99.90
10312;DHT22;5201;48.776;9.128;2023-04-03T08:28:07;5.10;99.90
10312;DHT22;5201;48.776;9.128;2023-04-03T08:30:33;5.20;99.90
10312;DHT22;5201;48.776;9.128;2023-04-03T08:33:01;5.50;99.90
10312;DHT22;5201;48.776;9.128;2023-04-03T08:35:27;5.30;99.90
10312;DHT22;5201;48.776;9.128;2023-04-03T08:37:53;5.30;99.90
10312;DHT22;5201;48.776;9.128;2023-04-03T08:40:18;5.20;99.90
10312;DHT22;5201;48.776;9.128;2023-04-03T08:45:45;5.20;99.90
10312;DHT22;5201;48.776;9.128;2023-04-03T08:48:17;5.50;99.90
10312;DHT22;5201;48.776;9.128;2023-04-03T08:50:51;5.40;99.90
10312;DHT22;5201;48.776;9.128;2023-04-03T08:53:21;5.20;99.90
10312;DHT22;5201;48.776;9.128;2023-04-03T08:55:50;5.30;99.90
10312;DHT22;5201;48.776;9.128;2023-04-03T08:58:21;6.40;99.90
10312;DHT22;5201;48.776;9.128;2023-04-03T09:00:55;5.40;99.90
10312;DHT22;5201;48.776;9.128;2023-04-03T09:03:22;5.70;99.90
10312;DHT22;5201;48.776;9.128;2023-04-03T09:06:22;5.60;99.90
10312;DHT22;5201;48.776;9.128;2023-04-03T09:12:00;5.40;99.90
10312;DHT22;5201;48.776;9.128;2023-04-03T09:14:57;5.30;99.90
10312;DHT22;5201;48.776;9.128;2023-04-03T09:17:41;5.20;99.90
10312;DHT22;5201;48.776;9.128;2023-04-03T09:23:01;5.70;99.90
10312;DHT22;5201;48.776;9.128;2023-04-03T09:25:32;5.70;99.90
10312;DHT22;5201;48.776;9.128;2023-04-03T09:28:00;5.90;99.90
10312;DHT22;5201;48.776;9.128;2023-04-03T09:30:27;5.90;99.90
10312;DHT22;5201;48.776;9.128;2023-04-03T09:32:55;5.60;99.90
10312;DHT22;5201;48.776;9.128;2023-04-03T09:35:31;5.70;99.90
10312;DHT22;5201;48.776;9.128;2023-04-03T09:40:45;5.70;99.90
10312;DHT22;5201;48.776;9.128;2023-04-03T09:43:21;6.00;99.90
10312;DHT22;5201;48.776;9.128;2023-04-03T09:45:49;5.70;99.90
10312;DHT22;5201;48.776;9.128;2023-04-03T09:48:18;5.30;99.90
10312;DHT22;5201;48.776;9.128;2023-04-03T09:53:37;6.00;99.90
10312;DHT22;5201;48.776;9.128;2023-04-03T09:59:06;7.30;99.90
10312;DHT22;5201;48.776;9.128;2023-04-03T10:01:38;5.70;99.90
10312;DHT22;5201;48.776;9.128;2023-04-03T10:04:14;5.60;99.90
10312;DHT22;5201;48.776;9.128;2023-04-03T10:06:43;5.60;99.90
10312;DHT22;5201;48.776;9.128;2023-04-03T10:09:20;5.70;99.90
10312;DHT22;5201;48.776;9.128;2023-04-03T10:12:07;5.80;99.90
10312;DHT22;5201;48.776;9.128;2023-04-03T10:14:36;5.70;99.90
10312;DHT22;5201;48.776;9.128;2023-04-03T10:17:18;5.30;99.90
10312;DHT22;5201;48.776;9.128;2023-04-03T10:19:57;5.40;99.90
10312;DHT22;5201;48.776;9.128;2023-04-03T10:25:35;5.80;99.90
10312;DHT22;5201;48.776;9.128;2023-04-03T10:28:38;5.60;99.90
10312;DHT22;5201;48.776;9.128;2023-04-03T10:37:23;6.30;99.90
10312;DHT22;5201;48.776;9.128;2023-04-03T10:43:04;6.30;99.90
10312;DHT22;5201;48.776;9.128;2023-04-03T10:50:58;6.10;99.90
10312;DHT22;5201;48.776;9.128;2023-04-03T10:58:44;5.80;99.90
10312;DHT22;5201;48.776;9.128;2023-04-03T11:01:26;5.90;99.90
10312;DHT22;5201;48.776;9.128;2023-04-03T11:03:57;6.10;99.90
10312;DHT22;5201;48.776;9.128;2023-04-03T11:06:25;7.40;99.90
10312;DHT22;5201;48.776;9.128;2023-04-03T11:09:02;6.10;99.90
10312;DHT22;5201;48.776;9.128;2023-04-03T11:11:37;6.20;99.90
10312;DHT22;5201;48.776;9.128;2023-04-03T11:16:47;7.60;99.90
10312;DHT22;5201;48.776;9.128;2023-04-03T11:19:22;6.00;99.90
10312;DHT22;5201;48.776;9.128;2023-04-03T11:22:29;6.00;99.90
10312;DHT22;5201;48.776;9.128;2023-04-03T11:27:58;6.20;99.90
10312;DHT22;5201;48.776;9.128;2023-04-03T11:30:45;6.20;99.90
10312;DHT22;5201;48.776;9.128;2023-04-03T11:35:52;6.30;99.90
10312;DHT22;5201;48.776;9.128;2023-04-03T11:38:27;5.90;99.60
10312;DHT22;5201;48.776;9.128;2023-04-03T11:40:55;6.00;99.70
10312;DHT22;5201;48.776;9.128;2023-04-03T11:45:56;6.00;99.90
10312;DHT22;5201;48.776;9.128;2023-04-03T11:50:58;5.80;99.90
10312;DHT22;5201;48.776;9.128;2023-04-03T11:53:36;5.90;99.90
10312;DHT22;5201;48.776;9.128;2023-04-03T12:01:55;6.10;99.90
10312;DHT22;5201;48.776;9.128;2023-04-03T12:04:24;5.90;99.90
10312;DHT22;5201;48.776;9.128;2023-04-03T12:07:00;6.10;99.90
10312;DHT22;5201;48.776;9.128;2023-04-03T12:09:52;6.30;99.70
10312;DHT22;5201;48.776;9.128;2023-04-03T12:12:38;6.30;99.80
10312;DHT22;5201;48.776;9.128;2023-04-03T12:15:24;6.20;99.40
10312;DHT22;5201;48.776;9.128;2023-04-03T12:17:50;6.20;99.50
10312;DHT22;5201;48.776;9.128;2023-04-03T12:23:30;6.20;99.70
10312;DHT22;5201;48.776;9.128;2023-04-03T12:26:18;6.20;99.90
10312;DHT22;5201;48.776;9.128;2023-04-03T12:28:45;6.40;99.50
10312;DHT22;5201;48.776;9.128;2023-04-03T12:31:12;6.40;99.10
10312;DHT22;5201;48.776;9.128;2023-04-03T12:33:48;6.40;98.90
10312;DHT22;5201;48.776;9.128;2023-04-03T12:36:52;5.80;98.90
10312;DHT22;5201;48.776;9.128;2023-04-03T12:39:36;6.00;98.70
10312;DHT22;5201;48.776;9.128;2023-04-03T12:47:36;6.00;98.90
10312;DHT22;5201;48.776;9.128;2023-04-03T12:50:04;6.10;98.80
10312;DHT22;5201;48.776;9.128;2023-04-03T12:52:44;6.10;98.60
10312;DHT22;5201;48.776;9.128;2023-04-03T12:55:19;6.00;98.60
10312;DHT22;5201;48.776;9.128;2023-04-03T12:57:45;6.10;98.70
10312;DHT22;5201;48.776;9.128;2023-04-03T13:00:30;6.10;98.20
10312;DHT22;5201;48.776;9.128;2023-04-03T13:02:58;6.30;98.80
10312;DHT22;5201;48.776;9.128;2023-04-03T13:05:24;6.50;98.90
10312;DHT22;5201;48.776;9.128;2023-04-03T13:07:58;6.50;98.50
10312;DHT22;5201;48.776;9.128;2023-04-03T13:10:25;6.70;98.40
10312;DHT22;5201;48.776;9.128;2023-04-03T13:12:58;7.10;98.90
10312;DHT22;5201;48.776;9.128;2023-04-03T13:15:27;6.20;98.30
10312;DHT22;5201;48.776;9.128;2023-04-03T13:17:54;6.60;98.60
10312;DHT22;5201;48.776;9.128;2023-04-03T13:20:22;6.60;98.60
10312;DHT22;5201;48.776;9.128;2023-04-03T13:22:52;7.10;98.60
10312;DHT22;5201;48.776;9.128;2023-04-03T13:25:21;6.90;98.20
10312;DHT22;5201;48.776;9.128;2023-04-03T13:27:47;6.80;98.00
10312;DHT22;5201;48.776;9.128;2023-04-03T13:30:31;6.60;97.90
10312;DHT22;5201;48.776;9.128;2023-04-03T13:33:01;6.90;97.30
10312;DHT22;5201;48.776;9.128;2023-04-03T13:35:29;7.10;97.40
10312;DHT22;5201;48.776;9.128;2023-04-03T13:38:26;7.20;97.70
10312;DHT22;5201;48.776;9.128;2023-04-03T13:41:00;6.90;97.70
10312;DHT22;5201;48.776;9.128;2023-04-03T13:43:33;6.70;97.20
10312;DHT22;5201;48.776;9.128;2023-04-03T13:46:04;6.60;97.30
10312;DHT22;5201;48.776;9.128;2023-04-03T13:48:41;6.80;97.30
10312;DHT22;5201;48.776;9.128;2023-04-03T13:51:24;6.80;97.20
10312;DHT22;5201;48.776;9.128;2023-04-03T13:54:00;6.70;97.40
10312;DHT22;5201;48.776;9.128;2023-04-03T13:56:36;7.00;97.30
10312;DHT22;5201;48.776;9.128;2023-04-03T14:04:32;7.50;95.30
10312;DHT22;5201;48.776;9.128;2023-04-03T14:06:58;7.40;95.50
10312;DHT22;5201;48.776;9.128;2023-04-03T14:09:25;7.20;95.30
10312;DHT22;5201;48.776;9.128;2023-04-03T14:12:00;7.30;96.00
10312;DHT22;5201;48.776;9.128;2023-04-03T14:14:34;7.30;95.50
10312;DHT22;5201;48.776;9.128;2023-04-03T14:17:10;7.10;95.90
10312;DHT22;5201;48.776;9.128;2023-04-03T14:19:38;7.00;96.20
10312;DHT22;5201;48.776;9.128;2023-04-03T14:24:43;7.00;96.00
10312;DHT22;5201;48.776;9.128;2023-04-03T14:29:42;6.90;96.00
10312;DHT22;5201;48.776;9.128;2023-04-03T14:32:12;7.20;96.50
10312;DHT22;5201;48.776;9.128;2023-04-03T14:34:38;6.90;96.20
10312;DHT22;5201;48.776;9.128;2023-04-03T14:37:08;6.90;96.50
10312;DHT22;5201;48.776;9.128;2023-04-03T14:39:34;6.90;95.90
10312;DHT22;5201;48.776;9.128;2023-04-03T14:42:00;6.90;95.90
10312;DHT22;5201;48.776;9.128;2023-04-03T14:44:25;6.80;95.80
10312;DHT22;5201;48.776;9.128;2023-04-03T14:46:51;6.60;96.30
10312;DHT22;5201;48.776;9.128;2023-04-03T14:49:23;6.70;95.80
10312;DHT22;5201;48.776;9.128;2023-04-03T14:51:50;6.80;95.70
10312;DHT22;5201;48.776;9.128;2023-04-03T14:54:19;6.80;95.50
10312;DHT22;5201;48.776;9.128;2023-04-03T14:56:50;7.00;95.80
10312;DHT22;5201;48.776;9.128;2023-04-03T14:59:17;7.20;94.90
10312;DHT22;5201;48.776;9.128;2023-04-03T15:01:45;7.00;94.70
10312;DHT22;5201;48.776;9.128;2023-04-03T15:04:13;6.90;95.30
10312;DHT22;5201;48.776;9.128;2023-04-03T15:06:39;6.90;95.50
10312;DHT22;5201;48.776;9.128;2023-04-03T15:09:08;6.80;95.00
10312;DHT22;5201;48.776;9.128;2023-04-03T15:11:36;6.80;94.50
10312;DHT22;5201;48.776;9.128;2023-04-03T15:14:02;6.70;94.70
10312;DHT22;5201;48.776;9.128;2023-04-03T15:16:28;6.90;94.90
10312;DHT22;5201;48.776;9.128;2023-04-03T15:18:53;6.90;94.60
10312;DHT22;5201;48.776;9.128;2023-04-03T15:21:19;6.70;94.90
10312;DHT22;5201;48.776;9.128;2023-04-03T15:23:44;6.90;94.50
10312;DHT22;5201;48.776;9.128;2023-04-03T15:26:10;6.70;94.60
10312;DHT22;5201;48.776;9.128;2023-04-03T15:28:40;6.70;94.10
10312;DHT22;5201;48.776;9.128;2023-04-03T15:31:06;6.60;94.30
10312;DHT22;5201;48.776;9.128;2023-04-03T15:33:33;6.70;94.20
10312;DHT22;5201;48.776;9.128;2023-04-03T15:35:59;6.80;94.70
10312;DHT22;5201;48.776;9.128;2023-04-03T15:38:25;6.70;94.60
10312;DHT22;5201;48.776;9.128;2023-04-03T15:40:51;6.70;94.90
10312;DHT22;5201;48.776;9.128;2023-04-03T15:43:16;6.80;94.70
10312;DHT22;5201;48.776;9.128;2023-04-03T15:45:43;6.80;94.20
10312;DHT22;5201;48.776;9.128;2023-04-03T15:48:10;7.50;94.20
10312;DHT22;5201;48.776;9.128;2023-04-03T15:50:36;6.40;94.40
10312;DHT22;5201;48.776;9.128;2023-04-03T15:53:02;6.40;94.40
10312;DHT22;5201;48.776;9.128;2023-04-03T15:55:30;6.40;94.10
10312;DHT22;5201;48.776;9.128;2023-04-03T15:57:56;6.50;94.00
10312;DHT22;5201;48.776;9.128;2023-04-03T16:00:22;6.60;93.80
10312;DHT22;5201;48.776;9.128;2023-04-03T16:02:52;6.50;93.90
10312;DHT22;5201;48.776;9.128;2023-04-03T16:05:19;7.00;93.90
10312;DHT22;5201;48.776;9.128;2023-04-03T16:07:45;6.80;93.30
10312;DHT22;5201;48.776;9.128;2023-04-03T16:10:13;6.70;93.70
10312;DHT22;5201;48.776;9.128;2023-04-03T16:12:39;6.80;93.50
10312;DHT22;5201;48.776;9.128;2023-04-03T16:15:05;6.80;93.70
10312;DHT22;5201;48.776;9.128;2023-04-03T16:17:32;6.90;93.10
10312;DHT22;5201;48.776;9.128;2023-04-03T16:19:59;9.00;93.80
10312;DHT22;5201;48.776;9.128;2023-04-03T16:22:26;5.30;92.40
10312;DHT22;5201;48.776;9.128;2023-04-03T16:24:53;6.80;93.00
10312;DHT22;5201;48.776;9.128;2023-04-03T16:27:18;6.70;93.50
10312;DHT22;5201;48.776;9.128;2023-04-03T16:29:44;6.70;93.70
10312;DHT22;5201;48.776;9.128;2023-04-03T16:32:10;6.70;93.80
10312;DHT22;5201;48.776;9.128;2023-04-03T16:34:36;6.60;93.40
10312;DHT22;5201;48.776;9.128;2023-04-03T16:37:02;6.60;93.30
10312;DHT22;5201;48.776;9.128;2023-04-03T16:39:27;6.40;93.30
10312;DHT22;5201;48.776;9.128;2023-04-03T16:41:53;6.40;93.70
10312;DHT22;5201;48.776;9.128;2023-04-03T16:44:18;6.40;94.20
10312;DHT22;5201;48.776;9.128;2023-04-03T16:46:44;6.50;93.90
10312;DHT22;5201;48.776;9.128;2023-04-03T16:49:10;6.50;93.70
10312;DHT22;5201;48.776;9.128;2023-04-03T16:51:36;6.40;94.20
10312;DHT22;5201;48.776;9.128;2023-04-03T16:54:01;6.40;94.00
10312;DHT22;5201;48.776;9.128;2023-04-03T16:56:27;6.50;94.30
10312;DHT22;5201;48.776;9.128;2023-04-03T16:58:53;7.00;94.40
10312;DHT22;5201;48.776;9.128;2023-04-03T17:01:20;6.50;94.10
10312;DHT22;5201;48.776;9.128;2023-04-03T17:03:46;6.60;93.80
10312;DHT22;5201;48.776;9.128;2023-04-03T17:06:13;6.40;93.40
10312;DHT22;5201;48.776;9.128;2023-04-03T17:08:46;6.30;93.80
10312;DHT22;5201;48.776;9.128;2023-04-03T17:11:12;6.40;93.70
10312;DHT22;5201;48.776;9.128;2023-04-03T17:13:38;6.40;93.80
10312;DHT22;5201;48.776;9.128;2023-04-03T17:16:06;6.20;93.80
10312;DHT22;5201;48.776;9.128;2023-04-03T17:18:32;6.30;93.70
10312;DHT22;5201;48.776;9.128;2023-04-03T17:20:58;6.40;93.50
10312;DHT22;5201;48.776;9.128;2023-04-03T17:23:25;6.50;93.10
10312;DHT22;5201;48.776;9.128;2023-04-03T17:25:54;6.50;93.50
10312;DHT22;5201;48.776;9.128;2023-04-03T17:28:20;6.50;93.60
10312;DHT22;5201;48.776;9.128;2023-04-03T17:30:49;6.50;93.40
10312;DHT22;5201;48.776;9.128;2023-04-03T17:33:15;6.60;93.40
10312;DHT22;5201;48.776;9.128;2023-04-03T17:35:41;6.60;93.30
10312;DHT22;5201;48.776;9.128;2023-04-03T17:38:06;6.50;93.50